Naxera, Virginia
Current Conditions -  °F | °C
As of 6:15 AM on Monday 22 Dec 2014 (Local Time) from KW75 Reporting Station
Overcast Overcast  
Wind Chill: 33°   Ceiling: 4700
Heat Index: 38°   Visibility: 10mi
Dew Point: 31°   Wind: 6mph
Humidity: 77%   Direction: 50°NE
Pressure: 30.24"   Gusts: NA
Location:  37.4386°N, 76.5499°W
Report Text: KW75 221115Z AUTO 05005KT 10SM BKN047 OVC100 03/00 A3024 RMK AO1 T00311005
Loading
Personal Weather Stations






























Interactive Weather Map New forecast layout! Learn more

10-Day Weather Forecast

Advertisements
Track Severe Weather on mobile